Martinsville, IN

4:21 AM EST on February 20, 2017 (GMT -0500)
Blue Bluff | | Change Station

Elev 604 ft 39.46 °N, 86.42 °W | Updated 3 minutes ago

Fog
Fog
38.5 °F
Feels Like 38 °F
N
0.0
Wind Variable Wind from East
Gusts 0.0 mph

Today
High -- | Low -- °F
--% Chance of Precip.
Yesterday
High -- | Low -- °F
Precip. -- in
Pressure 30.15 in
Visibility 0.5 miles
Clouds
Windchill 38 °F
Dew Point 37 °F
Humidity 95%
Rainfall 0.00 in
Snow Depth Not available.
7:30 AM 6:28 PM
Waning Crescent, 35% visible
SPECI KIND 200905Z 10005KT 1/2SM R05L/4000VP6000FT FG VV006 07/07 A3015 RMK AO2 T00670067
Pressure 30.15 in
Visibility 0.5 miles
Clouds
Windchill 38 °F
Dew Point 37 °F
Humidity 95%
Rainfall 0.00 in
Snow Depth Not available.
7:30 AM 6:28 PM
Waning Crescent, 35% visible
SPECI KIND 200905Z 10005KT 1/2SM R05L/4000VP6000FT FG VV006 07/07 A3015 RMK AO2 T00670067

Get Your Daily Forecast Email!

Thanks for signing up!

Be on the lookout for a verification email in your inbox.

You'll start receiving the daily forecast at 8 AM.

×

10-Day Weather Forecast

Almanac

Astronomy

Feb. 20, 2017 Rise Set
Actual Time
Civil Twilight
Nautical Twilight
Astronomical Twilight
Moon
Length of Visible Light
Length of Day
Tomorrow will be .
, % of the Moon is Illuminated

Today's Extremes

State Highs State Lows

Community

WunderPhotos

Upload Photos

1,962,540 photos uploaded!

WunderBlog® & News

Nearby

Air Quality

  Air Quality AQ Index Pollutant
Not available.

Snow Depth

Station Depth Elevation

Earthquake Activity

City Distance Mag. Time & Date
Minimum magnitude displayed is 2.5.

Coastal Water Temperatures

Place Temperature

Stations

Nearby Weather Stations

Station Location Temp. Windchill Dew Point Humidity Wind Precip. Elev Updated Type
                   

Watches & Warnings

Dense Fog Advisory
Issued: 3:23 AM EST Feb. 20, 2017 – National Weather Service

... Dense fog advisory remains in effect until 9 am EST this
morning...

* visibility... one quarter of a mile or less at times.

* Impacts... low visibility, and rapid changes in visibility will
create hazardous driving conditions. Rural areas will
generally see the lowest visibilities.

Precautionary/preparedness actions...

A dense fog advisory means visibilities will frequently be
reduced to less than one quarter mile. If driving... slow down...
use your headlights... and leave plenty of distance ahead of you.



50


Special Statement
Issued: 10:14 PM EST Feb. 19, 2017 – National Weather Service

... Locally dense fog expected overnight...

The presence of shallow moisture... light winds and mainly clear
skies will support developing areas of fog with locally dense fog
across central Indiana overnight and into Monday morning.
Visibilities in some spots may be drastically reduced to one
quarter mile or less. Use caution if traveling late tonight or
early Monday morning.


Ryan